sensor_id;sensor_type;location;lat;lon;timestamp;pressure;altitude;pressure_sealevel;temperature
38249;BMP280;24045;51.138;17.126;2023-04-26T00:14:41;99878.02;;;3.29
38249;BMP280;24045;51.138;17.126;2023-04-26T00:29:43;99879.59;;;3.20
38249;BMP280;24045;51.138;17.126;2023-04-26T00:44:46;99885.30;;;3.02
38249;BMP280;24045;51.138;17.126;2023-04-26T00:59:48;99892.07;;;2.86
38249;BMP280;24045;51.138;17.126;2023-04-26T01:14:51;99901.64;;;2.72
38249;BMP280;24045;51.138;17.126;2023-04-26T01:29:54;99909.50;;;2.61
38249;BMP280;24045;51.138;17.126;2023-04-26T01:44:57;99920.30;;;2.65
38249;BMP280;24045;51.138;17.126;2023-04-26T02:00:00;99927.86;;;2.64
38249;BMP280;24045;51.138;17.126;2023-04-26T02:15:04;99936.14;;;2.64
38249;BMP280;24045;51.138;17.126;2023-04-26T02:30:08;99931.27;;;2.65
38249;BMP280;24045;51.138;17.126;2023-04-26T02:45:12;99932.67;;;2.56
38249;BMP280;24045;51.138;17.126;2023-04-26T03:00:14;99936.27;;;2.48
38249;BMP280;24045;51.138;17.126;2023-04-26T03:15:17;99933.88;;;2.41
38249;BMP280;24045;51.138;17.126;2023-04-26T03:30:20;99950.94;;;2.14
38249;BMP280;24045;51.138;17.126;2023-04-26T03:45:23;99959.05;;;2.26
38249;BMP280;24045;51.138;17.126;2023-04-26T04:00:28;99975.63;;;2.52
38249;BMP280;24045;51.138;17.126;2023-04-26T04:15:31;99992.41;;;3.31
38249;BMP280;24045;51.138;17.126;2023-04-26T04:30:33;100000.30;;;5.02
38249;BMP280;24045;51.138;17.126;2023-04-26T04:45:37;100012.02;;;7.15
38249;BMP280;24045;51.138;17.126;2023-04-26T05:00:43;100027.64;;;6.32
38249;BMP280;24045;51.138;17.126;2023-04-26T05:15:47;100040.42;;;5.63
38249;BMP280;24045;51.138;17.126;2023-04-26T05:30:50;100049.31;;;7.79
38249;BMP280;24045;51.138;17.126;2023-04-26T05:45:54;100063.58;;;10.65
38249;BMP280;24045;51.138;17.126;2023-04-26T06:00:57;100067.00;;;12.44
38249;BMP280;24045;51.138;17.126;2023-04-26T06:16:00;100080.53;;;13.16
38249;BMP280;24045;51.138;17.126;2023-04-26T06:31:02;100088.11;;;14.68
38249;BMP280;24045;51.138;17.126;2023-04-26T06:46:05;100095.91;;;14.56
38249;BMP280;24045;51.138;17.126;2023-04-26T07:01:09;100099.14;;;14.10
38249;BMP280;24045;51.138;17.126;2023-04-26T07:16:11;100098.16;;;15.21
38249;BMP280;24045;51.138;17.126;2023-04-26T07:31:14;100094.17;;;15.50
38249;BMP280;24045;51.138;17.126;2023-04-26T07:46:18;100093.35;;;13.62
38249;BMP280;24045;51.138;17.126;2023-04-26T08:01:20;100108.70;;;14.88
38249;BMP280;24045;51.138;17.126;2023-04-26T08:16:23;100116.23;;;14.11
38249;BMP280;24045;51.138;17.126;2023-04-26T08:31:26;100114.04;;;14.04
38249;BMP280;24045;51.138;17.126;2023-04-26T08:46:46;100127.34;;;13.36
38249;BMP280;24045;51.138;17.126;2023-04-26T09:01:53;100131.43;;;13.36
38249;BMP280;24045;51.138;17.126;2023-04-26T09:16:56;100134.23;;;12.79
38249;BMP280;24045;51.138;17.126;2023-04-26T09:31:59;100135.48;;;12.62
38249;BMP280;24045;51.138;17.126;2023-04-26T09:47:08;100137.64;;;11.86
38249;BMP280;24045;51.138;17.126;2023-04-26T10:02:18;100135.28;;;13.81
38249;BMP280;24045;51.138;17.126;2023-04-26T10:17:21;100131.02;;;13.65
38249;BMP280;24045;51.138;17.126;2023-04-26T10:32:24;100133.60;;;13.62
38249;BMP280;24045;51.138;17.126;2023-04-26T10:47:28;100145.99;;;11.09
38249;BMP280;24045;51.138;17.126;2023-04-26T11:17:55;100145.13;;;12.49
38249;BMP280;24045;51.138;17.126;2023-04-26T11:32:59;100142.92;;;11.72
38249;BMP280;24045;51.138;17.126;2023-04-26T11:48:04;100141.92;;;12.92
38249;BMP280;24045;51.138;17.126;2023-04-26T12:03:07;100149.73;;;12.04
38249;BMP280;24045;51.138;17.126;2023-04-26T12:18:13;100131.85;;;13.04
38249;BMP280;24045;51.138;17.126;2023-04-26T12:33:17;100159.90;;;12.27
38249;BMP280;24045;51.138;17.126;2023-04-26T12:48:24;100151.94;;;11.39
38249;BMP280;24045;51.138;17.126;2023-04-26T13:03:27;100155.14;;;10.95
38249;BMP280;24045;51.138;17.126;2023-04-26T13:18:30;100169.45;;;10.67
38249;BMP280;24045;51.138;17.126;2023-04-26T13:33:33;100159.08;;;11.73
38249;BMP280;24045;51.138;17.126;2023-04-26T13:48:36;100160.80;;;12.13
38249;BMP280;24045;51.138;17.126;2023-04-26T14:03:40;100180.99;;;12.70
38249;BMP280;24045;51.138;17.126;2023-04-26T14:18:43;100187.50;;;11.62
38249;BMP280;24045;51.138;17.126;2023-04-26T14:33:46;100199.42;;;10.62
38249;BMP280;24045;51.138;17.126;2023-04-26T14:48:49;100195.89;;;11.52
38249;BMP280;24045;51.138;17.126;2023-04-26T15:03:52;100203.02;;;11.00
38249;BMP280;24045;51.138;17.126;2023-04-26T15:18:55;100217.20;;;11.20
38249;BMP280;24045;51.138;17.126;2023-04-26T15:33:58;100229.27;;;10.60
38249;BMP280;24045;51.138;17.126;2023-04-26T15:49:01;100250.29;;;10.39
38249;BMP280;24045;51.138;17.126;2023-04-26T16:04:09;100248.08;;;10.63
38249;BMP280;24045;51.138;17.126;2023-04-26T16:19:12;100239.24;;;10.42
38249;BMP280;24045;51.138;17.126;2023-04-26T16:34:15;100241.22;;;9.91
38249;BMP280;24045;51.138;17.126;2023-04-26T16:49:17;100252.19;;;9.66
38249;BMP280;24045;51.138;17.126;2023-04-26T17:04:20;100262.49;;;9.55
38249;BMP280;24045;51.138;17.126;2023-04-26T17:19:23;100267.00;;;9.34
38249;BMP280;24045;51.138;17.126;2023-04-26T17:34:26;100297.44;;;9.00
38249;BMP280;24045;51.138;17.126;2023-04-26T17:49:28;100314.52;;;8.82
38249;BMP280;24045;51.138;17.126;2023-04-26T18:04:31;100320.10;;;8.73
38249;BMP280;24045;51.138;17.126;2023-04-26T18:19:35;100318.19;;;8.47
38249;BMP280;24045;51.138;17.126;2023-04-26T18:34:37;100331.77;;;7.87
38249;BMP280;24045;51.138;17.126;2023-04-26T18:49:40;100333.95;;;7.18
38249;BMP280;24045;51.138;17.126;2023-04-26T19:04:43;100348.40;;;6.54
38249;BMP280;24045;51.138;17.126;2023-04-26T19:19:50;100362.13;;;6.30
38249;BMP280;24045;51.138;17.126;2023-04-26T19:34:53;100371.92;;;6.34
38249;BMP280;24045;51.138;17.126;2023-04-26T19:49:56;100378.92;;;6.27
38249;BMP280;24045;51.138;17.126;2023-04-26T20:05:00;100377.86;;;6.16
38249;BMP280;24045;51.138;17.126;2023-04-26T20:20:03;100380.45;;;6.22
38249;BMP280;24045;51.138;17.126;2023-04-26T20:35:09;100384.72;;;6.50
38249;BMP280;24045;51.138;17.126;2023-04-26T20:50:13;100395.78;;;6.63
38249;BMP280;24045;51.138;17.126;2023-04-26T21:05:15;100392.77;;;6.31
38249;BMP280;24045;51.138;17.126;2023-04-26T21:20:18;100399.25;;;5.84
38249;BMP280;24045;51.138;17.126;2023-04-26T21:35:21;100408.83;;;5.35
38249;BMP280;24045;51.138;17.126;2023-04-26T21:50:24;100422.35;;;4.93
38249;BMP280;24045;51.138;17.126;2023-04-26T22:05:27;100428.69;;;4.56
38249;BMP280;24045;51.138;17.126;2023-04-26T22:20:30;100439.15;;;4.38
38249;BMP280;24045;51.138;17.126;2023-04-26T22:35:33;100451.46;;;4.21
38249;BMP280;24045;51.138;17.126;2023-04-26T22:50:36;100458.00;;;4.06
38249;BMP280;24045;51.138;17.126;2023-04-26T23:05:39;100463.41;;;3.79
38249;BMP280;24045;51.138;17.126;2023-04-26T23:20:41;100462.58;;;3.53
38249;BMP280;24045;51.138;17.126;2023-04-26T23:35:44;100477.43;;;3.30
38249;BMP280;24045;51.138;17.126;2023-04-26T23:50:47;100480.84;;;3.07
